sensor_id;sensor_type;location;lat;lon;timestamp;P1;durP1;ratioP1;P2;durP2;ratioP2
20458;SDS011;10388;52.314;7.938;2023-04-24T00:01:42;3.73;;;1.30;;
20458;SDS011;10388;52.314;7.938;2023-04-24T00:04:13;2.60;;;1.20;;
20458;SDS011;10388;52.314;7.938;2023-04-24T00:06:46;3.43;;;1.43;;
20458;SDS011;10388;52.314;7.938;2023-04-24T00:09:19;1.60;;;1.17;;
20458;SDS011;10388;52.314;7.938;2023-04-24T00:11:50;1.63;;;1.23;;
20458;SDS011;10388;52.314;7.938;2023-04-24T00:14:20;1.30;;;1.20;;
20458;SDS011;10388;52.314;7.938;2023-04-24T00:16:51;1.47;;;1.30;;
20458;SDS011;10388;52.314;7.938;2023-04-24T00:19:21;1.63;;;1.53;;
20458;SDS011;10388;52.314;7.938;2023-04-24T00:21:52;1.40;;;1.23;;
20458;SDS011;10388;52.314;7.938;2023-04-24T00:24:28;1.47;;;1.37;;
20458;SDS011;10388;52.314;7.938;2023-04-24T00:27:12;1.60;;;1.50;;
20458;SDS011;10388;52.314;7.938;2023-04-24T00:29:43;1.63;;;1.53;;
20458;SDS011;10388;52.314;7.938;2023-04-24T00:32:19;1.93;;;1.77;;
20458;SDS011;10388;52.314;7.938;2023-04-24T00:34:49;1.93;;;1.70;;
20458;SDS011;10388;52.314;7.938;2023-04-24T00:37:20;2.17;;;1.73;;
20458;SDS011;10388;52.314;7.938;2023-04-24T00:39:50;1.80;;;1.70;;
20458;SDS011;10388;52.314;7.938;2023-04-24T00:42:23;2.87;;;2.13;;
20458;SDS011;10388;52.314;7.938;2023-04-24T00:44:54;2.03;;;1.60;;
20458;SDS011;10388;52.314;7.938;2023-04-24T00:47:26;2.13;;;1.70;;
20458;SDS011;10388;52.314;7.938;2023-04-24T00:49:58;2.43;;;2.07;;
20458;SDS011;10388;52.314;7.938;2023-04-24T00:52:37;2.97;;;2.07;;
20458;SDS011;10388;52.314;7.938;2023-04-24T00:55:10;2.10;;;1.90;;
20458;SDS011;10388;52.314;7.938;2023-04-24T00:57:41;1.87;;;1.70;;
20458;SDS011;10388;52.314;7.938;2023-04-24T01:00:11;3.30;;;2.00;;
20458;SDS011;10388;52.314;7.938;2023-04-24T01:02:43;2.10;;;1.90;;
20458;SDS011;10388;52.314;7.938;2023-04-24T01:05:15;1.80;;;1.70;;
20458;SDS011;10388;52.314;7.938;2023-04-24T01:07:47;1.83;;;1.70;;
20458;SDS011;10388;52.314;7.938;2023-04-24T01:10:21;2.00;;;1.80;;
20458;SDS011;10388;52.314;7.938;2023-04-24T01:13:00;1.90;;;1.80;;
20458;SDS011;10388;52.314;7.938;2023-04-24T01:15:31;2.43;;;1.60;;
20458;SDS011;10388;52.314;7.938;2023-04-24T01:18:02;2.60;;;1.70;;
20458;SDS011;10388;52.314;7.938;2023-04-24T01:20:51;2.10;;;1.90;;
20458;SDS011;10388;52.314;7.938;2023-04-24T01:23:30;1.53;;;1.30;;
20458;SDS011;10388;52.314;7.938;2023-04-24T01:26:03;1.50;;;1.40;;
20458;SDS011;10388;52.314;7.938;2023-04-24T01:28:34;1.43;;;1.33;;
20458;SDS011;10388;52.314;7.938;2023-04-24T01:31:08;2.40;;;1.20;;
20458;SDS011;10388;52.314;7.938;2023-04-24T01:33:45;1.50;;;1.40;;
20458;SDS011;10388;52.314;7.938;2023-04-24T01:36:15;1.40;;;1.30;;
20458;SDS011;10388;52.314;7.938;2023-04-24T01:38:47;2.10;;;1.30;;
20458;SDS011;10388;52.314;7.938;2023-04-24T01:41:17;2.20;;;1.40;;
20458;SDS011;10388;52.314;7.938;2023-04-24T01:43:48;1.73;;;1.40;;
20458;SDS011;10388;52.314;7.938;2023-04-24T01:46:21;2.37;;;1.47;;
20458;SDS011;10388;52.314;7.938;2023-04-24T01:48:52;1.63;;;1.50;;
20458;SDS011;10388;52.314;7.938;2023-04-24T01:51:23;1.53;;;1.20;;
20458;SDS011;10388;52.314;7.938;2023-04-24T01:53:57;2.07;;;1.30;;
20458;SDS011;10388;52.314;7.938;2023-04-24T01:56:31;1.93;;;1.30;;
20458;SDS011;10388;52.314;7.938;2023-04-24T01:59:05;4.57;;;2.00;;
20458;SDS011;10388;52.314;7.938;2023-04-24T02:01:36;1.43;;;1.20;;
20458;SDS011;10388;52.314;7.938;2023-04-24T02:04:08;0.87;;;0.87;;
20458;SDS011;10388;52.314;7.938;2023-04-24T02:06:39;1.37;;;1.20;;
20458;SDS011;10388;52.314;7.938;2023-04-24T02:09:09;3.00;;;1.23;;
20458;SDS011;10388;52.314;7.938;2023-04-24T02:11:40;1.53;;;1.40;;
20458;SDS011;10388;52.314;7.938;2023-04-24T02:14:11;1.40;;;1.30;;
20458;SDS011;10388;52.314;7.938;2023-04-24T02:16:42;1.60;;;1.23;;
20458;SDS011;10388;52.314;7.938;2023-04-24T02:19:16;1.17;;;1.00;;
20458;SDS011;10388;52.314;7.938;2023-04-24T02:21:47;2.37;;;1.50;;
20458;SDS011;10388;52.314;7.938;2023-04-24T02:24:17;1.63;;;1.23;;
20458;SDS011;10388;52.314;7.938;2023-04-24T02:26:50;1.40;;;1.20;;
20458;SDS011;10388;52.314;7.938;2023-04-24T02:29:21;1.53;;;1.40;;
20458;SDS011;10388;52.314;7.938;2023-04-24T02:31:52;1.47;;;1.37;;
20458;SDS011;10388;52.314;7.938;2023-04-24T02:34:23;1.53;;;1.43;;
20458;SDS011;10388;52.314;7.938;2023-04-24T02:36:54;1.77;;;1.67;;
20458;SDS011;10388;52.314;7.938;2023-04-24T02:39:24;1.60;;;1.50;;
20458;SDS011;10388;52.314;7.938;2023-04-24T02:41:55;1.73;;;1.63;;
20458;SDS011;10388;52.314;7.938;2023-04-24T02:44:26;1.80;;;1.50;;
20458;SDS011;10388;52.314;7.938;2023-04-24T02:46:57;2.07;;;1.50;;
20458;SDS011;10388;52.314;7.938;2023-04-24T02:49:30;2.83;;;1.50;;
20458;SDS011;10388;52.314;7.938;2023-04-24T02:52:01;1.70;;;1.60;;
20458;SDS011;10388;52.314;7.938;2023-04-24T02:54:31;1.80;;;1.70;;
20458;SDS011;10388;52.314;7.938;2023-04-24T02:57:04;2.57;;;1.80;;
20458;SDS011;10388;52.314;7.938;2023-04-24T02:59:36;2.57;;;1.60;;
20458;SDS011;10388;52.314;7.938;2023-04-24T03:02:06;2.07;;;1.87;;
20458;SDS011;10388;52.314;7.938;2023-04-24T03:04:37;2.20;;;2.00;;
20458;SDS011;10388;52.314;7.938;2023-04-24T03:07:07;2.87;;;1.70;;
20458;SDS011;10388;52.314;7.938;2023-04-24T03:09:38;3.00;;;1.60;;
20458;SDS011;10388;52.314;7.938;2023-04-24T03:12:09;1.80;;;1.60;;
20458;SDS011;10388;52.314;7.938;2023-04-24T03:14:39;1.73;;;1.63;;
20458;SDS011;10388;52.314;7.938;2023-04-24T03:17:10;1.83;;;1.73;;
20458;SDS011;10388;52.314;7.938;2023-04-24T03:19:41;1.77;;;1.67;;
20458;SDS011;10388;52.314;7.938;2023-04-24T03:22:11;3.03;;;1.87;;
20458;SDS011;10388;52.314;7.938;2023-04-24T03:24:45;2.00;;;1.80;;
20458;SDS011;10388;52.314;7.938;2023-04-24T03:27:39;2.07;;;1.80;;
20458;SDS011;10388;52.314;7.938;2023-04-24T03:30:07;1.87;;;1.77;;
20458;SDS011;10388;52.314;7.938;2023-04-24T03:32:50;2.27;;;1.73;;
20458;SDS011;10388;52.314;7.938;2023-04-24T03:35:21;2.37;;;1.97;;
20458;SDS011;10388;52.314;7.938;2023-04-24T03:37:51;3.63;;;2.30;;
20458;SDS011;10388;52.314;7.938;2023-04-24T03:40:22;2.23;;;2.03;;
20458;SDS011;10388;52.314;7.938;2023-04-24T03:42:52;3.00;;;2.70;;
20458;SDS011;10388;52.314;7.938;2023-04-24T03:45:23;4.47;;;3.37;;
20458;SDS011;10388;52.314;7.938;2023-04-24T03:47:54;3.93;;;3.53;;
20458;SDS011;10388;52.314;7.938;2023-04-24T03:50:24;3.83;;;3.43;;
20458;SDS011;10388;52.314;7.938;2023-04-24T03:52:56;4.40;;;3.80;;
20458;SDS011;10388;52.314;7.938;2023-04-24T03:55:27;8.80;;;3.47;;
20458;SDS011;10388;52.314;7.938;2023-04-24T03:57:57;4.33;;;3.93;;
20458;SDS011;10388;52.314;7.938;2023-04-24T04:00:28;4.13;;;3.73;;
20458;SDS011;10388;52.314;7.938;2023-04-24T04:02:58;5.37;;;4.20;;
20458;SDS011;10388;52.314;7.938;2023-04-24T04:05:29;6.90;;;6.13;;
20458;SDS011;10388;52.314;7.938;2023-04-24T04:07:59;7.40;;;6.50;;
20458;SDS011;10388;52.314;7.938;2023-04-24T04:10:30;7.83;;;6.97;;
20458;SDS011;10388;52.314;7.938;2023-04-24T04:13:01;9.60;;;7.77;;
20458;SDS011;10388;52.314;7.938;2023-04-24T04:15:31;8.50;;;7.63;;
20458;SDS011;10388;52.314;7.938;2023-04-24T04:18:02;9.23;;;7.60;;
20458;SDS011;10388;52.314;7.938;2023-04-24T04:20:33;9.20;;;8.10;;
20458;SDS011;10388;52.314;7.938;2023-04-24T04:23:03;10.20;;;9.13;;
20458;SDS011;10388;52.314;7.938;2023-04-24T04:25:34;10.17;;;7.77;;
20458;SDS011;10388;52.314;7.938;2023-04-24T04:28:04;8.50;;;7.43;;
20458;SDS011;10388;52.314;7.938;2023-04-24T04:30:35;9.97;;;7.70;;
20458;SDS011;10388;52.314;7.938;2023-04-24T04:33:08;8.27;;;7.23;;
20458;SDS011;10388;52.314;7.938;2023-04-24T04:35:38;7.90;;;7.10;;
20458;SDS011;10388;52.314;7.938;2023-04-24T04:38:09;9.80;;;7.97;;
20458;SDS011;10388;52.314;7.938;2023-04-24T04:40:40;9.77;;;8.27;;
20458;SDS011;10388;52.314;7.938;2023-04-24T04:43:12;9.70;;;8.43;;
20458;SDS011;10388;52.314;7.938;2023-04-24T04:45:45;11.03;;;8.97;;
20458;SDS011;10388;52.314;7.938;2023-04-24T04:48:18;10.30;;;9.20;;
20458;SDS011;10388;52.314;7.938;2023-04-24T04:50:48;9.53;;;8.53;;
20458;SDS011;10388;52.314;7.938;2023-04-24T04:53:19;9.97;;;8.97;;
20458;SDS011;10388;52.314;7.938;2023-04-24T04:55:50;10.47;;;9.23;;
20458;SDS011;10388;52.314;7.938;2023-04-24T04:58:20;11.33;;;9.67;;
20458;SDS011;10388;52.314;7.938;2023-04-24T05:00:51;11.17;;;8.63;;
20458;SDS011;10388;52.314;7.938;2023-04-24T05:03:22;10.40;;;8.63;;
20458;SDS011;10388;52.314;7.938;2023-04-24T05:05:52;11.47;;;9.73;;
20458;SDS011;10388;52.314;7.938;2023-04-24T05:08:23;10.17;;;9.17;;
20458;SDS011;10388;52.314;7.938;2023-04-24T05:10:54;10.57;;;9.43;;
20458;SDS011;10388;52.314;7.938;2023-04-24T05:13:25;11.30;;;9.50;;
20458;SDS011;10388;52.314;7.938;2023-04-24T05:15:55;9.90;;;8.90;;
20458;SDS011;10388;52.314;7.938;2023-04-24T05:18:27;11.10;;;9.77;;
20458;SDS011;10388;52.314;7.938;2023-04-24T05:20:57;10.27;;;9.13;;
20458;SDS011;10388;52.314;7.938;2023-04-24T05:23:28;10.63;;;9.23;;
20458;SDS011;10388;52.314;7.938;2023-04-24T05:25:58;10.43;;;8.93;;
20458;SDS011;10388;52.314;7.938;2023-04-24T05:28:29;10.20;;;8.27;;
20458;SDS011;10388;52.314;7.938;2023-04-24T05:31:00;13.27;;;8.90;;
20458;SDS011;10388;52.314;7.938;2023-04-24T05:33:31;9.90;;;8.50;;
20458;SDS011;10388;52.314;7.938;2023-04-24T05:36:01;11.37;;;8.67;;
20458;SDS011;10388;52.314;7.938;2023-04-24T05:38:32;9.63;;;8.63;;
20458;SDS011;10388;52.314;7.938;2023-04-24T05:41:02;11.77;;;9.00;;
20458;SDS011;10388;52.314;7.938;2023-04-24T05:43:33;10.43;;;8.80;;
20458;SDS011;10388;52.314;7.938;2023-04-24T05:46:03;11.37;;;8.93;;
20458;SDS011;10388;52.314;7.938;2023-04-24T05:48:34;11.73;;;8.87;;
20458;SDS011;10388;52.314;7.938;2023-04-24T05:51:05;11.83;;;9.27;;
20458;SDS011;10388;52.314;7.938;2023-04-24T05:53:35;15.60;;;10.67;;
20458;SDS011;10388;52.314;7.938;2023-04-24T05:56:06;13.00;;;10.20;;
20458;SDS011;10388;52.314;7.938;2023-04-24T05:58:36;11.57;;;10.43;;
20458;SDS011;10388;52.314;7.938;2023-04-24T06:01:07;12.40;;;9.93;;
20458;SDS011;10388;52.314;7.938;2023-04-24T06:03:38;12.80;;;10.87;;
20458;SDS011;10388;52.314;7.938;2023-04-24T06:06:09;12.93;;;10.27;;
20458;SDS011;10388;52.314;7.938;2023-04-24T06:08:40;12.53;;;11.10;;
20458;SDS011;10388;52.314;7.938;2023-04-24T06:11:12;14.70;;;10.87;;
20458;SDS011;10388;52.314;7.938;2023-04-24T06:13:42;13.47;;;11.03;;
20458;SDS011;10388;52.314;7.938;2023-04-24T06:16:13;14.20;;;11.07;;
20458;SDS011;10388;52.314;7.938;2023-04-24T06:18:44;12.60;;;10.53;;
20458;SDS011;10388;52.314;7.938;2023-04-24T06:21:16;14.73;;;11.73;;
20458;SDS011;10388;52.314;7.938;2023-04-24T06:23:47;11.90;;;10.53;;
20458;SDS011;10388;52.314;7.938;2023-04-24T06:26:19;13.73;;;10.93;;
20458;SDS011;10388;52.314;7.938;2023-04-24T06:28:50;11.83;;;10.23;;
20458;SDS011;10388;52.314;7.938;2023-04-24T06:31:21;13.57;;;10.83;;
20458;SDS011;10388;52.314;7.938;2023-04-24T06:33:52;11.53;;;10.33;;
20458;SDS011;10388;52.314;7.938;2023-04-24T06:36:22;13.60;;;10.20;;
20458;SDS011;10388;52.314;7.938;2023-04-24T06:38:53;12.23;;;9.67;;
20458;SDS011;10388;52.314;7.938;2023-04-24T06:41:24;12.37;;;10.57;;
20458;SDS011;10388;52.314;7.938;2023-04-24T06:43:55;12.43;;;10.67;;
20458;SDS011;10388;52.314;7.938;2023-04-24T06:46:25;11.20;;;10.00;;
20458;SDS011;10388;52.314;7.938;2023-04-24T06:48:57;13.77;;;10.90;;
20458;SDS011;10388;52.314;7.938;2023-04-24T06:51:28;13.20;;;11.20;;
20458;SDS011;10388;52.314;7.938;2023-04-24T06:53:58;14.37;;;11.13;;
20458;SDS011;10388;52.314;7.938;2023-04-24T06:56:29;13.73;;;11.70;;
20458;SDS011;10388;52.314;7.938;2023-04-24T06:59:00;11.77;;;10.53;;
20458;SDS011;10388;52.314;7.938;2023-04-24T07:01:31;12.70;;;11.10;;
20458;SDS011;10388;52.314;7.938;2023-04-24T07:04:01;13.97;;;10.47;;
20458;SDS011;10388;52.314;7.938;2023-04-24T07:06:32;15.30;;;11.07;;
20458;SDS011;10388;52.314;7.938;2023-04-24T07:09:02;11.97;;;10.87;;
20458;SDS011;10388;52.314;7.938;2023-04-24T07:11:33;13.27;;;10.57;;
20458;SDS011;10388;52.314;7.938;2023-04-24T07:14:04;11.87;;;10.50;;
20458;SDS011;10388;52.314;7.938;2023-04-24T07:16:34;11.80;;;10.53;;
20458;SDS011;10388;52.314;7.938;2023-04-24T07:19:05;12.53;;;10.00;;
20458;SDS011;10388;52.314;7.938;2023-04-24T07:21:36;12.30;;;9.90;;
20458;SDS011;10388;52.314;7.938;2023-04-24T07:24:06;11.43;;;9.37;;
20458;SDS011;10388;52.314;7.938;2023-04-24T07:26:40;12.57;;;9.40;;
20458;SDS011;10388;52.314;7.938;2023-04-24T07:29:11;10.43;;;9.33;;
20458;SDS011;10388;52.314;7.938;2023-04-24T07:31:42;10.63;;;9.10;;
20458;SDS011;10388;52.314;7.938;2023-04-24T07:34:12;10.10;;;9.10;;
20458;SDS011;10388;52.314;7.938;2023-04-24T07:36:43;10.20;;;8.87;;
20458;SDS011;10388;52.314;7.938;2023-04-24T07:39:13;9.40;;;8.47;;
20458;SDS011;10388;52.314;7.938;2023-04-24T07:41:44;11.00;;;8.90;;
20458;SDS011;10388;52.314;7.938;2023-04-24T07:44:14;9.90;;;8.90;;
20458;SDS011;10388;52.314;7.938;2023-04-24T07:46:45;10.93;;;8.90;;
20458;SDS011;10388;52.314;7.938;2023-04-24T07:49:15;10.63;;;8.63;;
20458;SDS011;10388;52.314;7.938;2023-04-24T07:51:46;9.77;;;8.77;;
20458;SDS011;10388;52.314;7.938;2023-04-24T07:54:16;10.57;;;9.20;;
20458;SDS011;10388;52.314;7.938;2023-04-24T07:56:47;9.80;;;8.80;;
20458;SDS011;10388;52.314;7.938;2023-04-24T07:59:18;12.63;;;9.40;;
20458;SDS011;10388;52.314;7.938;2023-04-24T08:01:48;12.07;;;9.93;;
20458;SDS011;10388;52.314;7.938;2023-04-24T08:04:19;10.53;;;9.30;;
20458;SDS011;10388;52.314;7.938;2023-04-24T08:06:49;10.90;;;9.87;;
20458;SDS011;10388;52.314;7.938;2023-04-24T08:09:20;11.17;;;9.73;;
20458;SDS011;10388;52.314;7.938;2023-04-24T08:11:50;11.33;;;9.63;;
20458;SDS011;10388;52.314;7.938;2023-04-24T08:14:21;11.17;;;9.07;;
20458;SDS011;10388;52.314;7.938;2023-04-24T08:16:53;10.00;;;9.00;;
20458;SDS011;10388;52.314;7.938;2023-04-24T08:19:25;9.67;;;8.77;;
20458;SDS011;10388;52.314;7.938;2023-04-24T08:21:56;8.70;;;7.80;;
20458;SDS011;10388;52.314;7.938;2023-04-24T08:24:26;10.77;;;8.33;;
20458;SDS011;10388;52.314;7.938;2023-04-24T08:26:57;8.53;;;7.73;;
20458;SDS011;10388;52.314;7.938;2023-04-24T08:29:27;8.97;;;8.03;;
20458;SDS011;10388;52.314;7.938;2023-04-24T08:31:58;8.93;;;8.13;;
20458;SDS011;10388;52.314;7.938;2023-04-24T08:34:29;8.43;;;7.63;;
20458;SDS011;10388;52.314;7.938;2023-04-24T08:37:00;8.13;;;7.43;;
20458;SDS011;10388;52.314;7.938;2023-04-24T08:39:30;8.23;;;7.50;;
20458;SDS011;10388;52.314;7.938;2023-04-24T08:42:01;7.83;;;7.00;;
20458;SDS011;10388;52.314;7.938;2023-04-24T08:44:35;7.57;;;6.83;;
20458;SDS011;10388;52.314;7.938;2023-04-24T08:47:06;7.77;;;6.93;;
20458;SDS011;10388;52.314;7.938;2023-04-24T08:49:38;7.03;;;6.33;;
20458;SDS011;10388;52.314;7.938;2023-04-24T08:52:09;8.43;;;6.53;;
20458;SDS011;10388;52.314;7.938;2023-04-24T08:54:42;9.17;;;7.23;;
20458;SDS011;10388;52.314;7.938;2023-04-24T08:57:17;7.37;;;6.60;;
20458;SDS011;10388;52.314;7.938;2023-04-24T08:59:48;12.20;;;6.87;;
20458;SDS011;10388;52.314;7.938;2023-04-24T09:02:19;7.33;;;6.60;;
20458;SDS011;10388;52.314;7.938;2023-04-24T09:04:51;7.93;;;6.50;;
20458;SDS011;10388;52.314;7.938;2023-04-24T09:07:24;8.13;;;7.33;;
20458;SDS011;10388;52.314;7.938;2023-04-24T09:09:57;7.53;;;6.83;;
20458;SDS011;10388;52.314;7.938;2023-04-24T09:12:29;8.83;;;7.10;;
20458;SDS011;10388;52.314;7.938;2023-04-24T09:15:01;7.40;;;6.70;;
20458;SDS011;10388;52.314;7.938;2023-04-24T09:17:33;7.63;;;6.93;;
20458;SDS011;10388;52.314;7.938;2023-04-24T09:20:05;9.37;;;7.40;;
20458;SDS011;10388;52.314;7.938;2023-04-24T09:22:36;6.60;;;6.00;;
20458;SDS011;10388;52.314;7.938;2023-04-24T09:25:07;6.80;;;6.20;;
20458;SDS011;10388;52.314;7.938;2023-04-24T09:27:42;9.87;;;6.53;;
20458;SDS011;10388;52.314;7.938;2023-04-24T09:30:14;6.73;;;6.13;;
20458;SDS011;10388;52.314;7.938;2023-04-24T09:33:12;6.10;;;5.50;;
20458;SDS011;10388;52.314;7.938;2023-04-24T09:35:50;6.90;;;5.90;;
20458;SDS011;10388;52.314;7.938;2023-04-24T09:38:30;6.20;;;5.60;;
20458;SDS011;10388;52.314;7.938;2023-04-24T09:41:08;6.20;;;5.70;;
20458;SDS011;10388;52.314;7.938;2023-04-24T09:43:43;7.50;;;6.80;;
20458;SDS011;10388;52.314;7.938;2023-04-24T09:46:14;6.27;;;5.73;;
20458;SDS011;10388;52.314;7.938;2023-04-24T09:48:48;6.33;;;5.10;;
20458;SDS011;10388;52.314;7.938;2023-04-24T09:51:18;5.77;;;5.10;;
20458;SDS011;10388;52.314;7.938;2023-04-24T09:56:50;8.00;;;5.63;;
20458;SDS011;10388;52.314;7.938;2023-04-24T09:59:21;5.63;;;5.17;;
20458;SDS011;10388;52.314;7.938;2023-04-24T10:01:52;6.33;;;5.67;;
20458;SDS011;10388;52.314;7.938;2023-04-24T10:04:23;4.93;;;4.43;;
20458;SDS011;10388;52.314;7.938;2023-04-24T10:06:55;4.40;;;4.00;;
20458;SDS011;10388;52.314;7.938;2023-04-24T10:09:27;3.93;;;2.70;;
20458;SDS011;10388;52.314;7.938;2023-04-24T10:11:57;2.60;;;2.40;;
20458;SDS011;10388;52.314;7.938;2023-04-24T10:14:29;2.80;;;2.60;;
20458;SDS011;10388;52.314;7.938;2023-04-24T10:17:00;3.10;;;2.80;;
20458;SDS011;10388;52.314;7.938;2023-04-24T10:19:31;2.77;;;2.57;;
20458;SDS011;10388;52.314;7.938;2023-04-24T10:22:03;2.80;;;2.50;;
20458;SDS011;10388;52.314;7.938;2023-04-24T10:24:34;3.20;;;2.90;;
20458;SDS011;10388;52.314;7.938;2023-04-24T10:27:07;3.03;;;2.73;;
20458;SDS011;10388;52.314;7.938;2023-04-24T10:29:39;2.67;;;2.47;;
20458;SDS011;10388;52.314;7.938;2023-04-24T10:32:11;3.40;;;2.30;;
20458;SDS011;10388;52.314;7.938;2023-04-24T10:34:41;2.23;;;2.03;;
20458;SDS011;10388;52.314;7.938;2023-04-24T10:37:12;1.93;;;1.70;;
20458;SDS011;10388;52.314;7.938;2023-04-24T10:39:47;2.03;;;1.80;;
20458;SDS011;10388;52.314;7.938;2023-04-24T10:42:18;2.73;;;2.00;;
20458;SDS011;10388;52.314;7.938;2023-04-24T10:44:49;2.00;;;1.80;;
20458;SDS011;10388;52.314;7.938;2023-04-24T10:47:19;2.50;;;2.30;;
20458;SDS011;10388;52.314;7.938;2023-04-24T10:49:51;2.13;;;1.93;;
20458;SDS011;10388;52.314;7.938;2023-04-24T10:52:22;2.60;;;1.97;;
20458;SDS011;10388;52.314;7.938;2023-04-24T10:54:52;4.40;;;2.00;;
20458;SDS011;10388;52.314;7.938;2023-04-24T10:57:27;2.40;;;1.83;;
20458;SDS011;10388;52.314;7.938;2023-04-24T11:00:12;3.17;;;1.73;;
20458;SDS011;10388;52.314;7.938;2023-04-24T11:02:48;2.47;;;1.60;;
20458;SDS011;10388;52.314;7.938;2023-04-24T11:05:20;1.93;;;1.67;;
20458;SDS011;10388;52.314;7.938;2023-04-24T11:10:46;2.80;;;1.60;;
20458;SDS011;10388;52.314;7.938;2023-04-24T11:13:24;1.53;;;1.40;;
20458;SDS011;10388;52.314;7.938;2023-04-24T11:19:02;3.53;;;1.50;;
20458;SDS011;10388;52.314;7.938;2023-04-24T11:27:06;6.00;;;4.60;;
20458;SDS011;10388;52.314;7.938;2023-04-24T11:29:44;7.57;;;5.20;;
20458;SDS011;10388;52.314;7.938;2023-04-24T11:37:41;8.90;;;7.33;;
20458;SDS011;10388;52.314;7.938;2023-04-24T11:40:16;9.73;;;7.73;;
20458;SDS011;10388;52.314;7.938;2023-04-24T11:42:50;10.60;;;7.83;;
20458;SDS011;10388;52.314;7.938;2023-04-24T11:45:26;10.20;;;7.30;;
20458;SDS011;10388;52.314;7.938;2023-04-24T11:48:00;8.50;;;6.87;;
20458;SDS011;10388;52.314;7.938;2023-04-24T11:50:32;9.67;;;6.87;;
20458;SDS011;10388;52.314;7.938;2023-04-24T11:53:03;8.60;;;7.00;;
20458;SDS011;10388;52.314;7.938;2023-04-24T11:55:34;8.27;;;6.73;;
20458;SDS011;10388;52.314;7.938;2023-04-24T11:58:05;7.83;;;6.30;;
20458;SDS011;10388;52.314;7.938;2023-04-24T12:00:36;9.67;;;7.13;;
20458;SDS011;10388;52.314;7.938;2023-04-24T12:03:08;9.17;;;6.63;;
20458;SDS011;10388;52.314;7.938;2023-04-24T12:05:41;9.43;;;6.70;;
20458;SDS011;10388;52.314;7.938;2023-04-24T12:08:11;7.37;;;6.00;;
20458;SDS011;10388;52.314;7.938;2023-04-24T12:10:42;6.70;;;5.90;;
20458;SDS011;10388;52.314;7.938;2023-04-24T12:13:12;7.00;;;6.30;;
20458;SDS011;10388;52.314;7.938;2023-04-24T12:15:43;7.10;;;6.07;;
20458;SDS011;10388;52.314;7.938;2023-04-24T12:18:14;8.87;;;5.70;;
20458;SDS011;10388;52.314;7.938;2023-04-24T12:20:46;7.03;;;5.10;;
20458;SDS011;10388;52.314;7.938;2023-04-24T12:23:32;8.27;;;4.97;;
20458;SDS011;10388;52.314;7.938;2023-04-24T12:26:06;6.40;;;4.83;;
20458;SDS011;10388;52.314;7.938;2023-04-24T12:28:37;5.67;;;4.37;;
20458;SDS011;10388;52.314;7.938;2023-04-24T12:31:08;6.60;;;4.90;;
20458;SDS011;10388;52.314;7.938;2023-04-24T12:33:39;5.17;;;4.13;;
20458;SDS011;10388;52.314;7.938;2023-04-24T12:36:10;6.27;;;4.57;;
20458;SDS011;10388;52.314;7.938;2023-04-24T12:38:43;8.20;;;5.00;;
20458;SDS011;10388;52.314;7.938;2023-04-24T12:41:16;7.37;;;4.47;;
20458;SDS011;10388;52.314;7.938;2023-04-24T12:43:51;10.97;;;5.37;;
20458;SDS011;10388;52.314;7.938;2023-04-24T12:46:22;10.83;;;5.40;;
20458;SDS011;10388;52.314;7.938;2023-04-24T12:48:53;7.33;;;4.43;;
20458;SDS011;10388;52.314;7.938;2023-04-24T12:51:23;9.77;;;5.00;;
20458;SDS011;10388;52.314;7.938;2023-04-24T12:53:54;12.07;;;5.73;;
20458;SDS011;10388;52.314;7.938;2023-04-24T12:56:25;11.37;;;5.40;;
20458;SDS011;10388;52.314;7.938;2023-04-24T12:58:55;10.17;;;5.13;;
20458;SDS011;10388;52.314;7.938;2023-04-24T13:01:26;6.60;;;5.17;;
20458;SDS011;10388;52.314;7.938;2023-04-24T13:03:56;10.00;;;5.30;;
20458;SDS011;10388;52.314;7.938;2023-04-24T13:06:27;9.90;;;5.53;;
20458;SDS011;10388;52.314;7.938;2023-04-24T13:08:57;6.27;;;5.10;;
20458;SDS011;10388;52.314;7.938;2023-04-24T13:11:28;8.13;;;4.27;;
20458;SDS011;10388;52.314;7.938;2023-04-24T13:13:58;6.73;;;4.40;;
20458;SDS011;10388;52.314;7.938;2023-04-24T13:16:29;7.90;;;4.37;;
20458;SDS011;10388;52.314;7.938;2023-04-24T13:19:00;7.17;;;4.37;;
20458;SDS011;10388;52.314;7.938;2023-04-24T13:21:30;9.27;;;3.80;;
20458;SDS011;10388;52.314;7.938;2023-04-24T13:24:01;9.00;;;4.33;;
20458;SDS011;10388;52.314;7.938;2023-04-24T13:26:34;12.10;;;4.60;;
20458;SDS011;10388;52.314;7.938;2023-04-24T13:29:05;7.07;;;4.60;;
20458;SDS011;10388;52.314;7.938;2023-04-24T13:31:35;6.03;;;4.43;;
20458;SDS011;10388;52.314;7.938;2023-04-24T13:34:06;11.93;;;3.93;;
20458;SDS011;10388;52.314;7.938;2023-04-24T13:36:37;6.87;;;3.60;;
20458;SDS011;10388;52.314;7.938;2023-04-24T13:39:07;5.10;;;3.50;;
20458;SDS011;10388;52.314;7.938;2023-04-24T13:41:38;6.87;;;3.63;;
20458;SDS011;10388;52.314;7.938;2023-04-24T13:44:09;8.20;;;4.07;;
20458;SDS011;10388;52.314;7.938;2023-04-24T13:46:40;4.60;;;3.03;;
20458;SDS011;10388;52.314;7.938;2023-04-24T13:49:13;7.90;;;4.10;;
20458;SDS011;10388;52.314;7.938;2023-04-24T13:51:44;6.00;;;3.50;;
20458;SDS011;10388;52.314;7.938;2023-04-24T13:54:15;6.23;;;3.43;;
20458;SDS011;10388;52.314;7.938;2023-04-24T13:56:46;8.33;;;3.13;;
20458;SDS011;10388;52.314;7.938;2023-04-24T13:59:16;6.13;;;2.40;;
20458;SDS011;10388;52.314;7.938;2023-04-24T14:01:47;4.73;;;2.57;;
20458;SDS011;10388;52.314;7.938;2023-04-24T14:04:18;5.97;;;2.47;;
20458;SDS011;10388;52.314;7.938;2023-04-24T14:06:48;2.60;;;2.20;;
20458;SDS011;10388;52.314;7.938;2023-04-24T14:09:19;3.70;;;2.37;;
20458;SDS011;10388;52.314;7.938;2023-04-24T14:11:51;4.43;;;1.93;;
20458;SDS011;10388;52.314;7.938;2023-04-24T14:14:21;6.47;;;2.60;;
20458;SDS011;10388;52.314;7.938;2023-04-24T14:16:52;2.97;;;2.40;;
20458;SDS011;10388;52.314;7.938;2023-04-24T14:19:23;3.87;;;2.60;;
20458;SDS011;10388;52.314;7.938;2023-04-24T14:21:53;9.73;;;8.73;;
20458;SDS011;10388;52.314;7.938;2023-04-24T14:24:26;7.97;;;3.60;;
20458;SDS011;10388;52.314;7.938;2023-04-24T14:26:57;5.13;;;3.37;;
20458;SDS011;10388;52.314;7.938;2023-04-24T14:29:27;3.93;;;3.13;;
20458;SDS011;10388;52.314;7.938;2023-04-24T14:31:58;4.73;;;2.77;;
20458;SDS011;10388;52.314;7.938;2023-04-24T14:34:28;4.63;;;3.90;;
20458;SDS011;10388;52.314;7.938;2023-04-24T14:36:59;6.40;;;3.43;;
20458;SDS011;10388;52.314;7.938;2023-04-24T14:39:30;4.00;;;3.30;;
20458;SDS011;10388;52.314;7.938;2023-04-24T14:42:00;5.30;;;3.00;;
20458;SDS011;10388;52.314;7.938;2023-04-24T14:44:31;6.70;;;4.03;;
20458;SDS011;10388;52.314;7.938;2023-04-24T14:47:02;6.17;;;4.17;;
20458;SDS011;10388;52.314;7.938;2023-04-24T14:49:32;5.40;;;4.00;;
20458;SDS011;10388;52.314;7.938;2023-04-24T14:52:03;6.13;;;4.13;;
20458;SDS011;10388;52.314;7.938;2023-04-24T14:54:34;5.70;;;3.63;;
20458;SDS011;10388;52.314;7.938;2023-04-24T14:57:04;3.07;;;2.67;;
20458;SDS011;10388;52.314;7.938;2023-04-24T14:59:35;6.77;;;3.10;;
20458;SDS011;10388;52.314;7.938;2023-04-24T15:02:06;6.43;;;2.80;;
20458;SDS011;10388;52.314;7.938;2023-04-24T15:04:36;6.03;;;2.83;;
20458;SDS011;10388;52.314;7.938;2023-04-24T15:07:07;3.33;;;2.60;;
20458;SDS011;10388;52.314;7.938;2023-04-24T15:09:37;5.30;;;3.00;;
20458;SDS011;10388;52.314;7.938;2023-04-24T15:12:08;7.53;;;3.50;;
20458;SDS011;10388;52.314;7.938;2023-04-24T15:14:39;6.23;;;2.53;;
20458;SDS011;10388;52.314;7.938;2023-04-24T15:17:10;6.63;;;3.20;;
20458;SDS011;10388;52.314;7.938;2023-04-24T15:19:41;3.53;;;2.30;;
20458;SDS011;10388;52.314;7.938;2023-04-24T15:22:11;4.33;;;2.60;;
20458;SDS011;10388;52.314;7.938;2023-04-24T15:24:43;3.20;;;2.50;;
20458;SDS011;10388;52.314;7.938;2023-04-24T15:27:13;4.40;;;2.20;;
20458;SDS011;10388;52.314;7.938;2023-04-24T15:29:44;4.00;;;2.23;;